sensor_id;sensor_type;location;lat;lon;timestamp;P1;durP1;ratioP1;P2;durP2;ratioP2
17773;SDS011;9011;33.236;-97.118;2022-10-16T00:01:09;3.17;;;1.83;;
17773;SDS011;9011;33.236;-97.118;2022-10-16T00:03:38;2.05;;;1.48;;
17773;SDS011;9011;33.236;-97.118;2022-10-16T00:06:07;3.80;;;1.52;;
17773;SDS011;9011;33.236;-97.118;2022-10-16T00:08:36;3.05;;;1.63;;
17773;SDS011;9011;33.236;-97.118;2022-10-16T00:11:06;4.35;;;1.73;;
17773;SDS011;9011;33.236;-97.118;2022-10-16T00:13:36;3.97;;;1.92;;
17773;SDS011;9011;33.236;-97.118;2022-10-16T00:16:06;8.98;;;2.15;;
17773;SDS011;9011;33.236;-97.118;2022-10-16T00:18:36;2.75;;;1.70;;
17773;SDS011;9011;33.236;-97.118;2022-10-16T00:21:06;2.97;;;1.58;;
17773;SDS011;9011;33.236;-97.118;2022-10-16T00:23:35;2.85;;;1.52;;
17773;SDS011;9011;33.236;-97.118;2022-10-16T00:26:05;3.75;;;1.98;;
17773;SDS011;9011;33.236;-97.118;2022-10-16T00:28:35;2.88;;;1.73;;
17773;SDS011;9011;33.236;-97.118;2022-10-16T00:31:04;1.75;;;1.50;;
17773;SDS011;9011;33.236;-97.118;2022-10-16T00:33:35;1.98;;;1.50;;
17773;SDS011;9011;33.236;-97.118;2022-10-16T00:36:06;1.70;;;1.60;;
17773;SDS011;9011;33.236;-97.118;2022-10-16T00:38:36;2.47;;;1.90;;
17773;SDS011;9011;33.236;-97.118;2022-10-16T00:41:05;4.80;;;1.92;;
17773;SDS011;9011;33.236;-97.118;2022-10-16T00:43:36;2.05;;;1.83;;
17773;SDS011;9011;33.236;-97.118;2022-10-16T00:46:10;2.45;;;1.63;;
17773;SDS011;9011;33.236;-97.118;2022-10-16T00:48:47;4.07;;;1.77;;
17773;SDS011;9011;33.236;-97.118;2022-10-16T00:51:20;1.60;;;1.40;;
17773;SDS011;9011;33.236;-97.118;2022-10-16T00:53:51;3.45;;;1.95;;
17773;SDS011;9011;33.236;-97.118;2022-10-16T00:56:20;2.08;;;1.60;;
17773;SDS011;9011;33.236;-97.118;2022-10-16T00:58:48;2.40;;;1.88;;
17773;SDS011;9011;33.236;-97.118;2022-10-16T01:01:17;2.33;;;1.80;;
17773;SDS011;9011;33.236;-97.118;2022-10-16T01:03:47;4.75;;;1.95;;
17773;SDS011;9011;33.236;-97.118;2022-10-16T01:06:24;2.75;;;1.98;;
17773;SDS011;9011;33.236;-97.118;2022-10-16T01:09:06;3.70;;;1.73;;
17773;SDS011;9011;33.236;-97.118;2022-10-16T01:11:44;2.45;;;1.73;;
17773;SDS011;9011;33.236;-97.118;2022-10-16T01:14:19;3.17;;;1.58;;
17773;SDS011;9011;33.236;-97.118;2022-10-16T01:16:56;1.90;;;1.80;;
17773;SDS011;9011;33.236;-97.118;2022-10-16T01:19:36;3.42;;;1.80;;
17773;SDS011;9011;33.236;-97.118;2022-10-16T01:22:24;3.30;;;1.80;;
17773;SDS011;9011;33.236;-97.118;2022-10-16T01:24:55;2.67;;;1.75;;
17773;SDS011;9011;33.236;-97.118;2022-10-16T01:27:30;2.60;;;1.52;;
17773;SDS011;9011;33.236;-97.118;2022-10-16T01:30:02;3.35;;;1.85;;
17773;SDS011;9011;33.236;-97.118;2022-10-16T01:32:36;3.15;;;1.83;;
17773;SDS011;9011;33.236;-97.118;2022-10-16T01:35:09;3.03;;;1.60;;
17773;SDS011;9011;33.236;-97.118;2022-10-16T01:37:43;4.22;;;1.80;;
17773;SDS011;9011;33.236;-97.118;2022-10-16T01:40:17;2.22;;;2.03;;
17773;SDS011;9011;33.236;-97.118;2022-10-16T01:42:50;3.20;;;1.80;;
17773;SDS011;9011;33.236;-97.118;2022-10-16T01:45:22;2.00;;;1.80;;
17773;SDS011;9011;33.236;-97.118;2022-10-16T01:47:51;2.83;;;1.92;;
17773;SDS011;9011;33.236;-97.118;2022-10-16T01:50:20;2.00;;;1.65;;
17773;SDS011;9011;33.236;-97.118;2022-10-16T01:52:51;3.55;;;1.63;;
17773;SDS011;9011;33.236;-97.118;2022-10-16T01:55:24;1.73;;;1.63;;
17773;SDS011;9011;33.236;-97.118;2022-10-16T01:57:58;2.22;;;1.52;;
17773;SDS011;9011;33.236;-97.118;2022-10-16T02:00:28;2.75;;;1.95;;
17773;SDS011;9011;33.236;-97.118;2022-10-16T02:02:57;2.20;;;1.73;;
17773;SDS011;9011;33.236;-97.118;2022-10-16T02:05:32;2.20;;;1.77;;
17773;SDS011;9011;33.236;-97.118;2022-10-16T02:08:05;4.35;;;1.80;;
17773;SDS011;9011;33.236;-97.118;2022-10-16T02:10:34;2.78;;;2.00;;
17773;SDS011;9011;33.236;-97.118;2022-10-16T02:13:06;3.35;;;1.73;;
17773;SDS011;9011;33.236;-97.118;2022-10-16T02:15:37;4.15;;;1.85;;
17773;SDS011;9011;33.236;-97.118;2022-10-16T02:18:05;6.63;;;2.20;;
17773;SDS011;9011;33.236;-97.118;2022-10-16T02:20:37;3.42;;;1.60;;
17773;SDS011;9011;33.236;-97.118;2022-10-16T02:23:12;4.30;;;1.90;;
17773;SDS011;9011;33.236;-97.118;2022-10-16T02:25:47;2.22;;;1.70;;
17773;SDS011;9011;33.236;-97.118;2022-10-16T02:28:21;3.00;;;2.00;;
17773;SDS011;9011;33.236;-97.118;2022-10-16T02:30:53;2.22;;;1.88;;
17773;SDS011;9011;33.236;-97.118;2022-10-16T02:33:25;2.80;;;1.77;;
17773;SDS011;9011;33.236;-97.118;2022-10-16T02:35:56;2.25;;;1.90;;
17773;SDS011;9011;33.236;-97.118;2022-10-16T02:38:25;2.88;;;1.83;;
17773;SDS011;9011;33.236;-97.118;2022-10-16T02:40:55;2.38;;;1.90;;
17773;SDS011;9011;33.236;-97.118;2022-10-16T02:43:26;2.30;;;1.50;;
17773;SDS011;9011;33.236;-97.118;2022-10-16T02:45:55;2.58;;;2.38;;
17773;SDS011;9011;33.236;-97.118;2022-10-16T02:48:23;4.45;;;2.38;;
17773;SDS011;9011;33.236;-97.118;2022-10-16T02:50:52;2.67;;;1.90;;
17773;SDS011;9011;33.236;-97.118;2022-10-16T02:53:20;2.20;;;2.00;;
17773;SDS011;9011;33.236;-97.118;2022-10-16T02:55:48;2.95;;;2.03;;
17773;SDS011;9011;33.236;-97.118;2022-10-16T02:58:17;2.53;;;1.73;;
17773;SDS011;9011;33.236;-97.118;2022-10-16T03:00:47;2.97;;;2.10;;
17773;SDS011;9011;33.236;-97.118;2022-10-16T03:03:15;2.70;;;2.33;;
17773;SDS011;9011;33.236;-97.118;2022-10-16T03:05:44;2.63;;;1.88;;
17773;SDS011;9011;33.236;-97.118;2022-10-16T03:08:12;2.40;;;2.20;;
17773;SDS011;9011;33.236;-97.118;2022-10-16T03:10:41;3.58;;;2.53;;
17773;SDS011;9011;33.236;-97.118;2022-10-16T03:13:10;3.53;;;1.70;;
17773;SDS011;9011;33.236;-97.118;2022-10-16T03:15:38;4.97;;;1.80;;
17773;SDS011;9011;33.236;-97.118;2022-10-16T03:18:08;2.10;;;1.90;;
17773;SDS011;9011;33.236;-97.118;2022-10-16T03:20:37;2.10;;;1.90;;
17773;SDS011;9011;33.236;-97.118;2022-10-16T03:23:05;3.63;;;1.83;;
17773;SDS011;9011;33.236;-97.118;2022-10-16T03:25:33;3.15;;;1.95;;
17773;SDS011;9011;33.236;-97.118;2022-10-16T03:28:02;3.33;;;1.73;;
17773;SDS011;9011;33.236;-97.118;2022-10-16T03:30:31;2.90;;;1.80;;
17773;SDS011;9011;33.236;-97.118;2022-10-16T03:32:59;3.85;;;2.17;;
17773;SDS011;9011;33.236;-97.118;2022-10-16T03:35:29;3.80;;;2.40;;
17773;SDS011;9011;33.236;-97.118;2022-10-16T03:37:58;2.80;;;1.88;;
17773;SDS011;9011;33.236;-97.118;2022-10-16T03:40:26;2.22;;;2.00;;
17773;SDS011;9011;33.236;-97.118;2022-10-16T03:42:57;1.85;;;1.73;;
17773;SDS011;9011;33.236;-97.118;2022-10-16T03:45:25;5.00;;;2.10;;
17773;SDS011;9011;33.236;-97.118;2022-10-16T03:47:54;4.85;;;1.70;;
17773;SDS011;9011;33.236;-97.118;2022-10-16T03:50:22;2.40;;;1.90;;
17773;SDS011;9011;33.236;-97.118;2022-10-16T03:52:53;2.72;;;1.90;;
17773;SDS011;9011;33.236;-97.118;2022-10-16T03:55:21;3.97;;;2.10;;
17773;SDS011;9011;33.236;-97.118;2022-10-16T03:57:49;4.03;;;1.80;;
17773;SDS011;9011;33.236;-97.118;2022-10-16T04:00:18;2.97;;;2.08;;
17773;SDS011;9011;33.236;-97.118;2022-10-16T04:02:46;3.85;;;2.30;;
17773;SDS011;9011;33.236;-97.118;2022-10-16T04:05:15;3.17;;;2.05;;
17773;SDS011;9011;33.236;-97.118;2022-10-16T04:07:43;2.50;;;1.92;;
17773;SDS011;9011;33.236;-97.118;2022-10-16T04:10:13;3.55;;;2.30;;
17773;SDS011;9011;33.236;-97.118;2022-10-16T04:12:42;3.90;;;2.15;;
17773;SDS011;9011;33.236;-97.118;2022-10-16T04:15:10;2.63;;;2.22;;
17773;SDS011;9011;33.236;-97.118;2022-10-16T04:17:39;5.82;;;2.78;;
17773;SDS011;9011;33.236;-97.118;2022-10-16T04:20:08;2.53;;;2.10;;
17773;SDS011;9011;33.236;-97.118;2022-10-16T04:22:36;3.00;;;1.80;;
17773;SDS011;9011;33.236;-97.118;2022-10-16T04:25:05;1.98;;;1.80;;
17773;SDS011;9011;33.236;-97.118;2022-10-16T04:27:35;2.25;;;2.00;;
17773;SDS011;9011;33.236;-97.118;2022-10-16T04:30:04;3.42;;;2.30;;
17773;SDS011;9011;33.236;-97.118;2022-10-16T04:32:33;3.15;;;2.00;;
17773;SDS011;9011;33.236;-97.118;2022-10-16T04:35:02;3.00;;;2.17;;
17773;SDS011;9011;33.236;-97.118;2022-10-16T04:37:31;3.97;;;2.47;;
17773;SDS011;9011;33.236;-97.118;2022-10-16T04:39:59;3.83;;;2.30;;
17773;SDS011;9011;33.236;-97.118;2022-10-16T04:42:27;3.17;;;1.88;;
17773;SDS011;9011;33.236;-97.118;2022-10-16T04:44:57;3.97;;;2.08;;
17773;SDS011;9011;33.236;-97.118;2022-10-16T04:47:26;2.65;;;2.25;;
17773;SDS011;9011;33.236;-97.118;2022-10-16T04:49:54;3.13;;;2.15;;
17773;SDS011;9011;33.236;-97.118;2022-10-16T04:52:24;2.75;;;1.70;;
17773;SDS011;9011;33.236;-97.118;2022-10-16T04:54:52;4.45;;;2.20;;
17773;SDS011;9011;33.236;-97.118;2022-10-16T04:57:21;3.30;;;2.20;;
17773;SDS011;9011;33.236;-97.118;2022-10-16T04:59:50;4.45;;;2.38;;
17773;SDS011;9011;33.236;-97.118;2022-10-16T05:02:21;5.82;;;2.40;;
17773;SDS011;9011;33.236;-97.118;2022-10-16T05:04:49;5.35;;;3.00;;
17773;SDS011;9011;33.236;-97.118;2022-10-16T05:07:18;2.33;;;1.80;;
17773;SDS011;9011;33.236;-97.118;2022-10-16T05:09:47;2.85;;;2.22;;
17773;SDS011;9011;33.236;-97.118;2022-10-16T05:12:15;2.92;;;2.25;;
17773;SDS011;9011;33.236;-97.118;2022-10-16T05:14:44;2.30;;;1.85;;
17773;SDS011;9011;33.236;-97.118;2022-10-16T05:17:12;3.28;;;2.55;;
17773;SDS011;9011;33.236;-97.118;2022-10-16T05:19:42;4.22;;;2.40;;
17773;SDS011;9011;33.236;-97.118;2022-10-16T05:22:11;2.33;;;2.03;;
17773;SDS011;9011;33.236;-97.118;2022-10-16T05:24:39;5.63;;;2.35;;
17773;SDS011;9011;33.236;-97.118;2022-10-16T05:27:08;3.47;;;2.20;;
17773;SDS011;9011;33.236;-97.118;2022-10-16T05:29:36;5.68;;;2.83;;
17773;SDS011;9011;33.236;-97.118;2022-10-16T05:32:05;4.32;;;2.28;;
17773;SDS011;9011;33.236;-97.118;2022-10-16T05:34:33;4.90;;;2.17;;
17773;SDS011;9011;33.236;-97.118;2022-10-16T05:37:04;3.30;;;2.03;;
17773;SDS011;9011;33.236;-97.118;2022-10-16T05:39:32;3.78;;;2.22;;
17773;SDS011;9011;33.236;-97.118;2022-10-16T05:42:02;4.65;;;2.08;;
17773;SDS011;9011;33.236;-97.118;2022-10-16T05:44:30;3.08;;;2.30;;
17773;SDS011;9011;33.236;-97.118;2022-10-16T05:46:59;5.45;;;2.50;;
17773;SDS011;9011;33.236;-97.118;2022-10-16T05:49:28;3.00;;;2.10;;
17773;SDS011;9011;33.236;-97.118;2022-10-16T05:51:56;3.78;;;2.25;;
17773;SDS011;9011;33.236;-97.118;2022-10-16T05:54:26;3.22;;;2.30;;
17773;SDS011;9011;33.236;-97.118;2022-10-16T05:56:54;2.75;;;2.08;;
17773;SDS011;9011;33.236;-97.118;2022-10-16T05:59:23;4.68;;;2.15;;
17773;SDS011;9011;33.236;-97.118;2022-10-16T06:01:51;4.70;;;2.60;;
17773;SDS011;9011;33.236;-97.118;2022-10-16T06:04:20;3.95;;;2.50;;
17773;SDS011;9011;33.236;-97.118;2022-10-16T06:06:48;2.38;;;2.10;;
17773;SDS011;9011;33.236;-97.118;2022-10-16T06:09:16;4.20;;;2.45;;
17773;SDS011;9011;33.236;-97.118;2022-10-16T06:11:46;3.22;;;1.88;;
17773;SDS011;9011;33.236;-97.118;2022-10-16T06:14:15;2.35;;;2.03;;
17773;SDS011;9011;33.236;-97.118;2022-10-16T06:16:43;2.53;;;2.00;;
17773;SDS011;9011;33.236;-97.118;2022-10-16T06:19:12;4.47;;;2.55;;
17773;SDS011;9011;33.236;-97.118;2022-10-16T06:21:41;5.20;;;2.42;;
17773;SDS011;9011;33.236;-97.118;2022-10-16T06:24:10;3.28;;;2.22;;
17773;SDS011;9011;33.236;-97.118;2022-10-16T06:26:38;3.45;;;2.40;;
17773;SDS011;9011;33.236;-97.118;2022-10-16T06:29:09;4.13;;;2.25;;
17773;SDS011;9011;33.236;-97.118;2022-10-16T06:31:38;4.72;;;2.20;;
17773;SDS011;9011;33.236;-97.118;2022-10-16T06:34:08;2.95;;;2.13;;
17773;SDS011;9011;33.236;-97.118;2022-10-16T06:36:37;4.22;;;2.42;;
17773;SDS011;9011;33.236;-97.118;2022-10-16T06:39:06;2.63;;;2.15;;
17773;SDS011;9011;33.236;-97.118;2022-10-16T06:41:35;3.47;;;2.10;;
17773;SDS011;9011;33.236;-97.118;2022-10-16T06:44:05;3.60;;;2.45;;
17773;SDS011;9011;33.236;-97.118;2022-10-16T06:46:35;3.15;;;2.28;;
17773;SDS011;9011;33.236;-97.118;2022-10-16T06:49:03;2.78;;;2.17;;
17773;SDS011;9011;33.236;-97.118;2022-10-16T06:51:32;3.03;;;2.28;;
17773;SDS011;9011;33.236;-97.118;2022-10-16T06:54:02;3.40;;;1.88;;
17773;SDS011;9011;33.236;-97.118;2022-10-16T06:56:31;3.15;;;1.95;;
17773;SDS011;9011;33.236;-97.118;2022-10-16T06:59:00;3.97;;;2.30;;
17773;SDS011;9011;33.236;-97.118;2022-10-16T07:01:28;3.95;;;1.90;;
17773;SDS011;9011;33.236;-97.118;2022-10-16T07:03:59;4.22;;;1.98;;
17773;SDS011;9011;33.236;-97.118;2022-10-16T07:06:30;4.82;;;2.25;;
17773;SDS011;9011;33.236;-97.118;2022-10-16T07:09:00;4.22;;;2.03;;
17773;SDS011;9011;33.236;-97.118;2022-10-16T07:11:30;2.97;;;1.70;;
17773;SDS011;9011;33.236;-97.118;2022-10-16T07:13:59;5.65;;;2.20;;
17773;SDS011;9011;33.236;-97.118;2022-10-16T07:16:29;5.40;;;2.05;;
17773;SDS011;9011;33.236;-97.118;2022-10-16T07:19:03;4.22;;;1.92;;
17773;SDS011;9011;33.236;-97.118;2022-10-16T07:21:31;4.30;;;2.22;;
17773;SDS011;9011;33.236;-97.118;2022-10-16T07:24:03;3.03;;;2.15;;
17773;SDS011;9011;33.236;-97.118;2022-10-16T07:26:33;4.40;;;1.70;;
17773;SDS011;9011;33.236;-97.118;2022-10-16T07:29:04;2.38;;;2.17;;
17773;SDS011;9011;33.236;-97.118;2022-10-16T07:31:34;2.60;;;1.98;;
17773;SDS011;9011;33.236;-97.118;2022-10-16T07:34:05;4.40;;;1.92;;
17773;SDS011;9011;33.236;-97.118;2022-10-16T07:36:34;2.88;;;1.90;;
17773;SDS011;9011;33.236;-97.118;2022-10-16T07:39:02;2.72;;;1.98;;
17773;SDS011;9011;33.236;-97.118;2022-10-16T07:41:31;2.25;;;2.05;;
17773;SDS011;9011;33.236;-97.118;2022-10-16T07:44:02;3.03;;;1.95;;
17773;SDS011;9011;33.236;-97.118;2022-10-16T07:46:31;2.92;;;2.28;;
17773;SDS011;9011;33.236;-97.118;2022-10-16T07:49:01;2.10;;;1.90;;
17773;SDS011;9011;33.236;-97.118;2022-10-16T07:51:31;3.38;;;1.85;;
17773;SDS011;9011;33.236;-97.118;2022-10-16T07:54:00;4.13;;;2.00;;
17773;SDS011;9011;33.236;-97.118;2022-10-16T07:56:29;2.22;;;1.83;;
17773;SDS011;9011;33.236;-97.118;2022-10-16T07:58:58;2.45;;;2.17;;
17773;SDS011;9011;33.236;-97.118;2022-10-16T08:01:27;2.80;;;1.77;;
17773;SDS011;9011;33.236;-97.118;2022-10-16T08:03:55;2.85;;;2.03;;
17773;SDS011;9011;33.236;-97.118;2022-10-16T08:06:24;4.00;;;2.08;;
17773;SDS011;9011;33.236;-97.118;2022-10-16T08:08:54;5.30;;;2.00;;
17773;SDS011;9011;33.236;-97.118;2022-10-16T08:11:22;3.20;;;2.17;;
17773;SDS011;9011;33.236;-97.118;2022-10-16T08:13:51;2.20;;;2.00;;
17773;SDS011;9011;33.236;-97.118;2022-10-16T08:16:20;3.15;;;1.80;;
17773;SDS011;9011;33.236;-97.118;2022-10-16T08:18:48;4.32;;;2.58;;
17773;SDS011;9011;33.236;-97.118;2022-10-16T08:21:17;2.70;;;1.85;;
17773;SDS011;9011;33.236;-97.118;2022-10-16T08:23:48;4.40;;;2.10;;
17773;SDS011;9011;33.236;-97.118;2022-10-16T08:26:18;2.03;;;1.85;;
17773;SDS011;9011;33.236;-97.118;2022-10-16T08:28:49;3.33;;;2.03;;
17773;SDS011;9011;33.236;-97.118;2022-10-16T08:31:17;2.40;;;2.00;;
17773;SDS011;9011;33.236;-97.118;2022-10-16T08:33:46;3.15;;;2.30;;
17773;SDS011;9011;33.236;-97.118;2022-10-16T08:36:14;3.75;;;1.90;;
17773;SDS011;9011;33.236;-97.118;2022-10-16T08:38:43;3.53;;;2.35;;
17773;SDS011;9011;33.236;-97.118;2022-10-16T08:41:27;3.97;;;2.05;;
17773;SDS011;9011;33.236;-97.118;2022-10-16T08:44:26;2.00;;;1.70;;
17773;SDS011;9011;33.236;-97.118;2022-10-16T08:47:10;3.65;;;1.88;;
17773;SDS011;9011;33.236;-97.118;2022-10-16T08:49:49;2.65;;;2.10;;
17773;SDS011;9011;33.236;-97.118;2022-10-16T08:52:25;3.10;;;2.08;;
17773;SDS011;9011;33.236;-97.118;2022-10-16T08:54:59;2.10;;;1.70;;
17773;SDS011;9011;33.236;-97.118;2022-10-16T08:57:30;2.42;;;2.22;;
17773;SDS011;9011;33.236;-97.118;2022-10-16T08:59:59;4.07;;;1.60;;
17773;SDS011;9011;33.236;-97.118;2022-10-16T09:02:33;7.95;;;1.33;;
17773;SDS011;9011;33.236;-97.118;2022-10-16T09:05:16;7.13;;;1.70;;
17773;SDS011;9011;33.236;-97.118;2022-10-16T09:07:59;3.97;;;1.60;;
17773;SDS011;9011;33.236;-97.118;2022-10-16T09:10:37;6.93;;;1.70;;
17773;SDS011;9011;33.236;-97.118;2022-10-16T09:13:16;7.85;;;2.03;;
17773;SDS011;9011;33.236;-97.118;2022-10-16T09:15:51;4.32;;;1.27;;
17773;SDS011;9011;33.236;-97.118;2022-10-16T09:18:24;2.95;;;1.10;;
17773;SDS011;9011;33.236;-97.118;2022-10-16T09:20:57;3.55;;;0.85;;
17773;SDS011;9011;33.236;-97.118;2022-10-16T09:23:33;2.08;;;0.82;;
17773;SDS011;9011;33.236;-97.118;2022-10-16T09:26:03;2.00;;;0.70;;
17773;SDS011;9011;33.236;-97.118;2022-10-16T09:28:38;0.88;;;0.60;;
17773;SDS011;9011;33.236;-97.118;2022-10-16T09:31:09;3.78;;;0.77;;
17773;SDS011;9011;33.236;-97.118;2022-10-16T09:33:42;1.20;;;0.50;;
17773;SDS011;9011;33.236;-97.118;2022-10-16T09:36:14;2.42;;;0.93;;
17773;SDS011;9011;33.236;-97.118;2022-10-16T09:38:44;1.95;;;0.77;;
17773;SDS011;9011;33.236;-97.118;2022-10-16T09:41:14;1.83;;;0.50;;
17773;SDS011;9011;33.236;-97.118;2022-10-16T09:43:49;2.28;;;0.43;;
17773;SDS011;9011;33.236;-97.118;2022-10-16T09:46:22;1.50;;;0.43;;
17773;SDS011;9011;33.236;-97.118;2022-10-16T09:48:54;3.00;;;0.77;;
17773;SDS011;9011;33.236;-97.118;2022-10-16T09:51:24;1.30;;;0.73;;
17773;SDS011;9011;33.236;-97.118;2022-10-16T09:53:56;0.63;;;0.50;;
17773;SDS011;9011;33.236;-97.118;2022-10-16T09:56:26;1.48;;;0.50;;
17773;SDS011;9011;33.236;-97.118;2022-10-16T09:58:59;0.93;;;0.50;;
17773;SDS011;9011;33.236;-97.118;2022-10-16T10:01:30;1.45;;;0.60;;
17773;SDS011;9011;33.236;-97.118;2022-10-16T10:04:03;1.60;;;0.88;;
17773;SDS011;9011;33.236;-97.118;2022-10-16T10:06:33;1.60;;;0.80;;
17773;SDS011;9011;33.236;-97.118;2022-10-16T10:09:05;2.08;;;0.85;;
17773;SDS011;9011;33.236;-97.118;2022-10-16T10:11:45;2.30;;;0.85;;
17773;SDS011;9011;33.236;-97.118;2022-10-16T10:14:24;2.28;;;0.80;;
17773;SDS011;9011;33.236;-97.118;2022-10-16T10:17:07;1.40;;;0.73;;
17773;SDS011;9011;33.236;-97.118;2022-10-16T10:19:38;1.85;;;0.55;;
17773;SDS011;9011;33.236;-97.118;2022-10-16T10:25:22;1.85;;;0.95;;
17773;SDS011;9011;33.236;-97.118;2022-10-16T10:28:22;1.27;;;0.80;;
17773;SDS011;9011;33.236;-97.118;2022-10-16T10:31:03;1.17;;;0.80;;
17773;SDS011;9011;33.236;-97.118;2022-10-16T10:33:38;0.85;;;0.85;;
17773;SDS011;9011;33.236;-97.118;2022-10-16T10:36:14;1.45;;;0.80;;
17773;SDS011;9011;33.236;-97.118;2022-10-16T10:38:50;2.78;;;0.75;;
17773;SDS011;9011;33.236;-97.118;2022-10-16T10:44:23;1.35;;;0.80;;
17773;SDS011;9011;33.236;-97.118;2022-10-16T10:47:04;0.73;;;0.65;;
17773;SDS011;9011;33.236;-97.118;2022-10-16T10:49:45;1.67;;;0.82;;
17773;SDS011;9011;33.236;-97.118;2022-10-16T10:52:30;1.73;;;0.68;;
17773;SDS011;9011;33.236;-97.118;2022-10-16T10:55:14;2.10;;;0.90;;
17773;SDS011;9011;33.236;-97.118;2022-10-16T10:57:54;1.67;;;0.90;;
17773;SDS011;9011;33.236;-97.118;2022-10-16T11:00:36;1.58;;;0.95;;
17773;SDS011;9011;33.236;-97.118;2022-10-16T11:03:17;1.80;;;0.98;;
17773;SDS011;9011;33.236;-97.118;2022-10-16T11:06:02;2.28;;;1.05;;
17773;SDS011;9011;33.236;-97.118;2022-10-16T11:08:35;1.55;;;0.90;;
17773;SDS011;9011;33.236;-97.118;2022-10-16T11:11:08;0.85;;;0.68;;
17773;SDS011;9011;33.236;-97.118;2022-10-16T11:13:43;0.85;;;0.60;;
17773;SDS011;9011;33.236;-97.118;2022-10-16T11:16:19;1.38;;;0.80;;
17773;SDS011;9011;33.236;-97.118;2022-10-16T11:18:56;2.13;;;0.80;;
17773;SDS011;9011;33.236;-97.118;2022-10-16T11:21:30;0.77;;;0.32;;
17773;SDS011;9011;33.236;-97.118;2022-10-16T11:24:05;1.85;;;0.50;;
17773;SDS011;9011;33.236;-97.118;2022-10-16T11:26:43;1.08;;;0.90;;
17773;SDS011;9011;33.236;-97.118;2022-10-16T11:29:15;0.82;;;0.68;;
17773;SDS011;9011;33.236;-97.118;2022-10-16T11:31:49;2.25;;;0.80;;
17773;SDS011;9011;33.236;-97.118;2022-10-16T11:34:24;1.88;;;0.98;;
17773;SDS011;9011;33.236;-97.118;2022-10-16T11:36:58;2.13;;;0.80;;
17773;SDS011;9011;33.236;-97.118;2022-10-16T11:39:30;1.02;;;0.77;;
17773;SDS011;9011;33.236;-97.118;2022-10-16T11:42:01;1.73;;;0.73;;
17773;SDS011;9011;33.236;-97.118;2022-10-16T11:44:44;1.92;;;0.80;;
17773;SDS011;9011;33.236;-97.118;2022-10-16T11:47:23;1.20;;;0.70;;
17773;SDS011;9011;33.236;-97.118;2022-10-16T11:49:57;1.27;;;0.80;;
17773;SDS011;9011;33.236;-97.118;2022-10-16T11:52:30;1.30;;;0.60;;
17773;SDS011;9011;33.236;-97.118;2022-10-16T11:55:04;1.75;;;0.90;;
17773;SDS011;9011;33.236;-97.118;2022-10-16T11:57:42;2.03;;;0.70;;
17773;SDS011;9011;33.236;-97.118;2022-10-16T12:00:19;2.20;;;0.80;;
17773;SDS011;9011;33.236;-97.118;2022-10-16T12:02:53;3.15;;;1.45;;
17773;SDS011;9011;33.236;-97.118;2022-10-16T12:05:31;1.27;;;0.70;;
17773;SDS011;9011;33.236;-97.118;2022-10-16T12:08:12;2.00;;;1.00;;
17773;SDS011;9011;33.236;-97.118;2022-10-16T12:10:42;2.05;;;0.70;;
17773;SDS011;9011;33.236;-97.118;2022-10-16T12:13:31;1.00;;;0.70;;
17773;SDS011;9011;33.236;-97.118;2022-10-16T12:16:04;1.35;;;0.90;;
17773;SDS011;9011;33.236;-97.118;2022-10-16T12:18:34;1.45;;;0.98;;
17773;SDS011;9011;33.236;-97.118;2022-10-16T12:21:04;2.30;;;0.80;;
17773;SDS011;9011;33.236;-97.118;2022-10-16T12:23:32;1.70;;;0.70;;
17773;SDS011;9011;33.236;-97.118;2022-10-16T12:26:04;1.10;;;1.00;;
17773;SDS011;9011;33.236;-97.118;2022-10-16T12:28:33;1.35;;;0.65;;
17773;SDS011;9011;33.236;-97.118;2022-10-16T12:31:05;2.17;;;1.00;;
17773;SDS011;9011;33.236;-97.118;2022-10-16T12:33:36;3.83;;;1.17;;
17773;SDS011;9011;33.236;-97.118;2022-10-16T12:36:09;3.00;;;1.08;;
17773;SDS011;9011;33.236;-97.118;2022-10-16T12:38:45;3.75;;;1.10;;
17773;SDS011;9011;33.236;-97.118;2022-10-16T12:41:23;3.60;;;1.13;;
17773;SDS011;9011;33.236;-97.118;2022-10-16T12:43:54;2.22;;;0.90;;
17773;SDS011;9011;33.236;-97.118;2022-10-16T12:51:59;1.40;;;0.70;;
17773;SDS011;9011;33.236;-97.118;2022-10-16T12:54:27;1.65;;;1.13;;
17773;SDS011;9011;33.236;-97.118;2022-10-16T12:57:01;0.80;;;0.65;;
17773;SDS011;9011;33.236;-97.118;2022-10-16T12:59:41;2.15;;;0.82;;
17773;SDS011;9011;33.236;-97.118;2022-10-16T13:02:30;1.95;;;0.80;;
17773;SDS011;9011;33.236;-97.118;2022-10-16T13:05:20;0.85;;;0.70;;
17773;SDS011;9011;33.236;-97.118;2022-10-16T13:07:59;1.35;;;0.90;;
17773;SDS011;9011;33.236;-97.118;2022-10-16T13:10:40;1.25;;;0.90;;
17773;SDS011;9011;33.236;-97.118;2022-10-16T13:13:13;3.03;;;1.00;;
17773;SDS011;9011;33.236;-97.118;2022-10-16T13:16:04;1.98;;;0.95;;
17773;SDS011;9011;33.236;-97.118;2022-10-16T13:18:44;2.40;;;1.20;;
17773;SDS011;9011;33.236;-97.118;2022-10-16T13:21:30;0.98;;;0.88;;
17773;SDS011;9011;33.236;-97.118;2022-10-16T13:24:09;1.55;;;0.90;;
17773;SDS011;9011;33.236;-97.118;2022-10-16T13:26:49;0.93;;;0.82;;
17773;SDS011;9011;33.236;-97.118;2022-10-16T13:29:23;0.90;;;0.68;;
17773;SDS011;9011;33.236;-97.118;2022-10-16T13:31:56;2.33;;;1.05;;
17773;SDS011;9011;33.236;-97.118;2022-10-16T13:34:26;1.05;;;0.90;;
17773;SDS011;9011;33.236;-97.118;2022-10-16T13:36:55;2.15;;;0.80;;
17773;SDS011;9011;33.236;-97.118;2022-10-16T13:39:25;1.67;;;1.13;;
17773;SDS011;9011;33.236;-97.118;2022-10-16T13:42:04;0.88;;;0.88;;
17773;SDS011;9011;33.236;-97.118;2022-10-16T13:44:35;1.92;;;0.90;;
17773;SDS011;9011;33.236;-97.118;2022-10-16T13:47:12;1.85;;;0.77;;
17773;SDS011;9011;33.236;-97.118;2022-10-16T13:49:44;1.45;;;0.80;;
17773;SDS011;9011;33.236;-97.118;2022-10-16T13:52:16;1.42;;;0.95;;
17773;SDS011;9011;33.236;-97.118;2022-10-16T13:54:47;1.15;;;0.95;;
17773;SDS011;9011;33.236;-97.118;2022-10-16T13:57:16;1.00;;;0.80;;
17773;SDS011;9011;33.236;-97.118;2022-10-16T13:59:44;1.60;;;0.95;;
17773;SDS011;9011;33.236;-97.118;2022-10-16T14:02:18;0.98;;;0.90;;
17773;SDS011;9011;33.236;-97.118;2022-10-16T14:04:49;0.95;;;0.95;;
17773;SDS011;9011;33.236;-97.118;2022-10-16T14:07:20;2.17;;;1.30;;
17773;SDS011;9011;33.236;-97.118;2022-10-16T14:09:53;1.02;;;1.00;;
17773;SDS011;9011;33.236;-97.118;2022-10-16T14:12:22;2.80;;;1.15;;
17773;SDS011;9011;33.236;-97.118;2022-10-16T14:14:51;1.80;;;1.00;;
17773;SDS011;9011;33.236;-97.118;2022-10-16T14:17:22;1.27;;;1.10;;
17773;SDS011;9011;33.236;-97.118;2022-10-16T14:19:52;1.83;;;0.75;;
17773;SDS011;9011;33.236;-97.118;2022-10-16T14:22:25;1.42;;;0.90;;
17773;SDS011;9011;33.236;-97.118;2022-10-16T14:24:59;1.33;;;0.80;;
17773;SDS011;9011;33.236;-97.118;2022-10-16T14:27:29;2.65;;;1.02;;
17773;SDS011;9011;33.236;-97.118;2022-10-16T14:32:54;1.30;;;0.90;;
17773;SDS011;9011;33.236;-97.118;2022-10-16T14:35:24;1.05;;;0.88;;
17773;SDS011;9011;33.236;-97.118;2022-10-16T14:37:55;1.48;;;0.88;;
17773;SDS011;9011;33.236;-97.118;2022-10-16T14:40:27;1.83;;;0.82;;
17773;SDS011;9011;33.236;-97.118;2022-10-16T14:42:57;3.05;;;0.90;;
17773;SDS011;9011;33.236;-97.118;2022-10-16T14:45:27;0.65;;;0.65;;
17773;SDS011;9011;33.236;-97.118;2022-10-16T14:47:58;0.93;;;0.82;;
17773;SDS011;9011;33.236;-97.118;2022-10-16T14:50:28;1.45;;;0.80;;
17773;SDS011;9011;33.236;-97.118;2022-10-16T14:52:56;1.02;;;0.68;;
17773;SDS011;9011;33.236;-97.118;2022-10-16T14:55:27;0.77;;;0.50;;
17773;SDS011;9011;33.236;-97.118;2022-10-16T14:57:56;0.70;;;0.70;;
17773;SDS011;9011;33.236;-97.118;2022-10-16T15:00:24;1.08;;;0.77;;
17773;SDS011;9011;33.236;-97.118;2022-10-16T15:02:52;1.00;;;0.90;;
17773;SDS011;9011;33.236;-97.118;2022-10-16T15:05:21;0.73;;;0.68;;
17773;SDS011;9011;33.236;-97.118;2022-10-16T15:07:51;1.20;;;0.75;;
17773;SDS011;9011;33.236;-97.118;2022-10-16T15:10:20;0.95;;;0.85;;
17773;SDS011;9011;33.236;-97.118;2022-10-16T15:12:51;1.48;;;0.93;;
17773;SDS011;9011;33.236;-97.118;2022-10-16T15:18:09;1.30;;;0.90;;